Terminal Aerodrome Forecast
Issued by NWS

Current Version | Previous Version | Text Only | Print | Product List | Glossary On
Versions: 1 2 3 4 5 6 7 8 9 10 11 12 13 14 15 16 17 18 19 20 21 22 23 24 25 26 27 28 29 30 31 32 33 34 35 36 37 38 39 40 41
000 FTUS42 KRAH 191724 TAFRWI TAF KRWI 191724Z 1918/2018 11012G20KT P6SM SCT015 OVC035 TEMPO 1919/1923 2SM -SHRA BR OVC017 FM200000 14012G22KT 2SM -RA BR OVC007 TEMPO 2000/2004 1/2SM +RA FG OVC003 FM200800 22012KT 5SM BR OVC005 FM201500 24012G25KT P6SM BKN025=

USA.gov is the U.S. government's official web portal to all federal, state and local government web resources and services.